createdAt,value
2023-04-04T00:00:12.322Z,54.94
2023-04-04T00:01:12.301Z,54.73
2023-04-04T00:02:17.308Z,56.18
2023-04-04T00:03:12.379Z,55.17
2023-04-04T00:04:12.295Z,54.63
2023-04-04T00:05:12.240Z,55.66
2023-04-04T00:06:12.238Z,56.08
2023-04-04T00:07:12.225Z,54.83
2023-04-04T00:08:12.202Z,55.56
2023-04-04T00:09:12.181Z,54.73
2023-04-04T00:10:12.170Z,55.35
2023-04-04T00:11:12.178Z,54.83
2023-04-04T00:12:12.170Z,54.73
2023-04-04T00:13:17.162Z,54.11
2023-04-04T00:14:12.131Z,54.86
2023-04-04T00:15:12.184Z,54.75
2023-04-04T00:16:12.164Z,54.63
2023-04-04T00:17:12.102Z,55.25
2023-04-04T00:18:12.112Z,54.96
2023-04-04T00:19:12.068Z,55.07
2023-04-04T00:20:12.078Z,54.34
2023-04-04T00:21:12.055Z,54.44
2023-04-04T00:22:12.036Z,55.58
2023-04-04T00:23:12.025Z,55.17
2023-04-04T00:24:17.090Z,54.34
2023-04-04T00:25:12.005Z,54.24
2023-04-04T00:26:12.012Z,54.34
2023-04-04T00:27:11.977Z,54.96
2023-04-04T00:28:11.972Z,54.55
2023-04-04T00:29:11.963Z,54.44
2023-04-04T00:30:11.956Z,54.34
2023-04-04T00:31:11.972Z,54.44
2023-04-04T00:32:11.931Z,54.73
2023-04-04T00:33:11.928Z,54.44
2023-04-04T00:34:11.900Z,54.34
2023-04-04T00:35:16.925Z,54.96
2023-04-04T00:36:11.952Z,54.86
2023-04-04T00:37:11.866Z,55.27
2023-04-04T00:38:11.856Z,54.44
2023-04-04T00:39:11.851Z,54.44
2023-04-04T00:40:11.834Z,54.44
2023-04-04T00:41:11.831Z,54.65
2023-04-04T00:42:11.876Z,54.13
2023-04-04T00:43:11.831Z,54.34
2023-04-04T00:44:11.787Z,54.55
2023-04-04T00:45:11.776Z,54.86
2023-04-04T00:46:16.852Z,54.96
2023-04-04T00:47:11.753Z,54.44
2023-04-04T00:48:11.772Z,54.55
2023-04-04T00:49:11.731Z,54.75
2023-04-04T00:50:11.752Z,54.55
2023-04-04T00:51:11.744Z,54.44
2023-04-04T00:52:11.701Z,54.24
2023-04-04T00:53:11.720Z,54.96
2023-04-04T00:54:11.721Z,54.65
2023-04-04T00:55:11.684Z,54.65
2023-04-04T00:56:11.668Z,54.03
2023-04-04T00:57:16.667Z,55.30
2023-04-04T00:58:11.636Z,55.30
2023-04-04T00:59:11.677Z,55.51
2023-04-04T01:00:11.636Z,54.75
2023-04-04T01:01:11.629Z,55.19
2023-04-04T01:02:11.587Z,55.61
2023-04-04T01:03:11.579Z,55.30
2023-04-04T01:04:11.632Z,54.88
2023-04-04T01:05:11.593Z,56.10
2023-04-04T01:06:11.586Z,55.51
2023-04-04T01:07:11.557Z,56.23
2023-04-04T01:08:16.542Z,55.71
2023-04-04T01:09:11.505Z,55.61
2023-04-04T01:10:11.509Z,56.34
2023-04-04T01:11:11.496Z,55.51
2023-04-04T01:12:11.512Z,56.23
2023-04-04T01:13:11.460Z,56.02
2023-04-04T01:14:11.452Z,56.23
2023-04-04T01:15:11.460Z,56.21
2023-04-04T01:16:11.548Z,56.44
2023-04-04T01:17:11.416Z,56.86
2023-04-04T01:18:11.429Z,56.34
2023-04-04T01:19:16.425Z,56.44
2023-04-04T01:20:11.407Z,56.41
2023-04-04T01:21:11.390Z,56.23
2023-04-04T01:22:11.362Z,55.92
2023-04-04T01:23:11.387Z,56.96
2023-04-04T01:24:11.343Z,56.34
2023-04-04T01:25:11.340Z,56.65
2023-04-04T01:26:11.337Z,55.92
2023-04-04T01:27:11.311Z,56.13
2023-04-04T01:28:11.309Z,56.34
2023-04-04T01:29:11.283Z,56.13
2023-04-04T01:30:16.298Z,56.23
2023-04-04T01:31:11.272Z,56.23
2023-04-04T01:32:11.285Z,56.76
2023-04-04T01:33:11.238Z,56.23
2023-04-04T01:34:11.233Z,55.92
2023-04-04T01:35:11.212Z,56.34
2023-04-04T01:36:11.276Z,56.86
2023-04-04T01:37:11.216Z,56.02
2023-04-04T01:38:11.203Z,56.23
2023-04-04T01:39:11.253Z,56.34
2023-04-04T01:40:11.164Z,56.13
2023-04-04T01:41:16.171Z,56.23
2023-04-04T01:42:11.146Z,56.02
2023-04-04T01:43:11.154Z,56.26
2023-04-04T01:44:11.140Z,57.30
2023-04-04T01:45:11.103Z,56.68
2023-04-04T01:46:11.109Z,57.20
2023-04-04T01:47:11.091Z,57.30
2023-04-04T01:48:11.106Z,56.88
2023-04-04T01:49:11.361Z,57.20
2023-04-04T01:50:11.088Z,57.30
2023-04-04T01:51:11.038Z,57.64
2023-04-04T01:52:16.059Z,57.20
2023-04-04T01:53:11.017Z,57.75
2023-04-04T01:54:11.006Z,56.81
2023-04-04T01:55:11.014Z,57.75
2023-04-04T01:56:11.009Z,58.16
2023-04-04T01:57:10.982Z,58.03
2023-04-04T01:58:10.965Z,57.51
2023-04-04T01:59:11.070Z,57.75
2023-04-04T02:00:10.960Z,57.30
2023-04-04T02:01:10.940Z,57.12
2023-04-04T02:02:10.965Z,57.92
2023-04-04T02:03:15.926Z,57.32
2023-04-04T02:04:10.928Z,57.75
2023-04-04T02:05:10.891Z,57.85
2023-04-04T02:06:10.876Z,58.26
2023-04-04T02:07:10.870Z,57.85
2023-04-04T02:08:10.898Z,58.26
2023-04-04T02:09:10.840Z,58.26
2023-04-04T02:10:10.832Z,58.29
2023-04-04T02:11:10.995Z,58.29
2023-04-04T02:12:10.836Z,58.37
2023-04-04T02:13:10.796Z,58.70
2023-04-04T02:14:15.842Z,58.08
2023-04-04T02:15:10.772Z,58.18
2023-04-04T02:16:10.811Z,57.87
2023-04-04T02:17:10.765Z,58.18
2023-04-04T02:18:10.739Z,58.81
2023-04-04T02:19:10.728Z,59.02
2023-04-04T02:20:10.760Z,58.29
2023-04-04T02:21:10.709Z,59.23
2023-04-04T02:22:10.707Z,58.50
2023-04-04T02:23:10.683Z,59.23
2023-04-04T02:24:10.671Z,58.84
2023-04-04T02:25:15.684Z,58.18
2023-04-04T02:26:10.682Z,59.33
2023-04-04T02:27:10.676Z,58.81
2023-04-04T02:28:10.630Z,59.23
2023-04-04T02:29:10.620Z,58.60
2023-04-04T02:30:10.607Z,58.91
2023-04-04T02:31:10.601Z,58.81
2023-04-04T02:32:10.620Z,59.44
2023-04-04T02:33:10.577Z,59.54
2023-04-04T02:34:10.560Z,59.33
2023-04-04T02:35:10.559Z,59.23
2023-04-04T02:36:15.619Z,59.23
2023-04-04T02:37:10.542Z,59.33
2023-04-04T02:38:10.528Z,59.64
2023-04-04T02:39:10.504Z,59.33
2023-04-04T02:40:10.496Z,59.75
2023-04-04T02:41:10.484Z,59.33
2023-04-04T02:42:10.487Z,59.23
2023-04-04T02:43:10.486Z,60.58
2023-04-04T02:44:10.491Z,59.64
2023-04-04T02:45:10.440Z,59.64
2023-04-04T02:46:21.311Z,60.06
2023-04-04T02:47:16.478Z,59.44
2023-04-04T02:48:10.451Z,59.33
2023-04-04T02:49:10.401Z,60.47
2023-04-04T02:50:10.408Z,59.23
2023-04-04T02:51:10.375Z,59.54
2023-04-04T02:52:10.366Z,59.64
2023-04-04T02:53:10.378Z,59.54
2023-04-04T02:54:10.362Z,59.56
2023-04-04T02:55:10.347Z,59.54
2023-04-04T02:56:10.320Z,59.54
2023-04-04T02:57:10.358Z,59.56
2023-04-04T02:58:15.346Z,59.64
2023-04-04T02:59:10.317Z,59.56
2023-04-04T03:00:10.280Z,59.25
2023-04-04T03:01:10.353Z,59.15
2023-04-04T03:02:10.354Z,60.40
2023-04-04T03:03:10.415Z,59.15
2023-04-04T03:04:10.326Z,59.77
2023-04-04T03:05:10.225Z,60.30
2023-04-04T03:06:10.212Z,59.99
2023-04-04T03:07:10.202Z,60.53
2023-04-04T03:08:10.208Z,60.53
2023-04-04T03:09:15.230Z,60.61
2023-04-04T03:10:10.168Z,60.40
2023-04-04T03:11:10.161Z,60.40
2023-04-04T03:12:10.146Z,60.01
2023-04-04T03:13:10.152Z,60.30
2023-04-04T03:14:10.142Z,60.61
2023-04-04T03:15:10.137Z,60.50
2023-04-04T03:16:10.130Z,61.26
2023-04-04T03:17:10.091Z,60.22
2023-04-04T03:18:10.146Z,59.91
2023-04-04T03:19:10.077Z,60.85
2023-04-04T03:20:15.158Z,60.42
2023-04-04T03:21:10.080Z,60.61
2023-04-04T03:22:10.031Z,60.32
2023-04-04T03:23:10.033Z,60.74
2023-04-04T03:24:10.021Z,60.22
2023-04-04T03:25:10.007Z,60.42
2023-04-04T03:26:09.989Z,60.74
2023-04-04T03:27:10.003Z,60.63
2023-04-04T03:28:09.989Z,60.42
2023-04-04T03:29:09.958Z,60.42
2023-04-04T03:30:10.055Z,60.53
2023-04-04T03:31:14.962Z,60.32
2023-04-04T03:32:09.942Z,60.42
2023-04-04T03:33:10.209Z,60.32
2023-04-04T03:34:09.899Z,60.53
2023-04-04T03:35:09.887Z,60.71
2023-04-04T03:36:09.896Z,60.42
2023-04-04T03:37:09.866Z,61.26
2023-04-04T03:38:09.926Z,61.05
2023-04-04T03:39:09.870Z,60.74
2023-04-04T03:40:09.836Z,61.05
2023-04-04T03:41:09.821Z,61.05
2023-04-04T03:42:14.830Z,60.85
2023-04-04T03:43:09.810Z,61.05
2023-04-04T03:44:09.787Z,60.53
2023-04-04T03:45:09.799Z,61.05
2023-04-04T03:46:09.877Z,61.05
2023-04-04T03:47:09.770Z,60.63
2023-04-04T03:48:09.754Z,60.32
2023-04-04T03:49:09.735Z,60.85
2023-04-04T03:50:09.722Z,61.16
2023-04-04T03:51:09.736Z,60.95
2023-04-04T03:52:09.700Z,61.26
2023-04-04T03:53:14.723Z,61.05
2023-04-04T03:54:09.680Z,61.16
2023-04-04T03:55:09.670Z,61.08
2023-04-04T03:56:09.652Z,60.85
2023-04-04T03:57:09.665Z,60.74
2023-04-04T03:58:09.639Z,60.77
2023-04-04T03:59:09.684Z,60.77
2023-04-04T04:00:09.622Z,60.53
2023-04-04T04:01:09.596Z,61.18
2023-04-04T04:02:09.633Z,60.77
2023-04-04T04:03:09.673Z,60.77
2023-04-04T04:04:14.648Z,60.97
2023-04-04T04:05:09.551Z,61.16
2023-04-04T04:06:09.542Z,61.08
2023-04-04T04:07:09.528Z,61.08
2023-04-04T04:08:09.526Z,60.66
2023-04-04T04:09:09.536Z,60.97
2023-04-04T04:10:09.497Z,60.77
2023-04-04T04:11:09.483Z,61.16
2023-04-04T04:12:09.474Z,61.08
2023-04-04T04:13:09.478Z,60.53
2023-04-04T04:14:09.452Z,60.95
2023-04-04T04:15:14.493Z,61.08
2023-04-04T04:16:09.489Z,61.29
2023-04-04T04:17:09.417Z,60.95
2023-04-04T04:18:09.436Z,60.77
2023-04-04T04:19:09.398Z,61.18
2023-04-04T04:20:09.388Z,61.18
2023-04-04T04:21:09.405Z,61.08
2023-04-04T04:22:09.360Z,60.66
2023-04-04T04:23:09.360Z,60.97
2023-04-04T04:24:09.337Z,61.40
2023-04-04T04:25:09.330Z,60.77
2023-04-04T04:26:14.340Z,60.77
2023-04-04T04:27:09.342Z,60.77
2023-04-04T04:28:09.316Z,60.77
2023-04-04T04:29:09.286Z,60.46
2023-04-04T04:30:09.281Z,61.18
2023-04-04T04:31:09.286Z,61.81
2023-04-04T04:32:09.255Z,61.29
2023-04-04T04:33:09.288Z,60.77
2023-04-04T04:34:09.252Z,60.46
2023-04-04T04:35:09.226Z,61.18
2023-04-04T04:36:09.250Z,60.56
2023-04-04T04:37:14.223Z,60.66
2023-04-04T04:38:09.206Z,60.66
2023-04-04T04:39:09.199Z,60.56
2023-04-04T04:40:09.164Z,61.08
2023-04-04T04:41:09.160Z,61.29
2023-04-04T04:42:09.151Z,61.50
2023-04-04T04:43:09.145Z,61.08
2023-04-04T04:44:09.128Z,61.08
2023-04-04T04:45:09.121Z,60.80
2023-04-04T04:46:09.100Z,61.00
2023-04-04T04:47:09.100Z,60.97
2023-04-04T04:48:14.116Z,60.97
2023-04-04T04:49:09.094Z,62.23
2023-04-04T04:50:09.162Z,61.91
2023-04-04T04:51:09.071Z,62.23
2023-04-04T04:52:09.039Z,62.12
2023-04-04T04:53:09.047Z,61.83
2023-04-04T04:54:09.015Z,61.83
2023-04-04T04:55:09.000Z,61.83
2023-04-04T04:56:08.989Z,61.11
2023-04-04T04:57:09.034Z,61.18
2023-04-04T04:58:08.978Z,61.40
2023-04-04T04:59:14.066Z,61.40
2023-04-04T05:00:08.944Z,61.40
2023-04-04T05:01:08.953Z,61.11
2023-04-04T05:02:08.941Z,61.42
2023-04-04T05:03:08.960Z,61.83
2023-04-04T05:04:08.898Z,61.71
2023-04-04T05:05:08.888Z,62.26
2023-04-04T05:06:08.913Z,62.12
2023-04-04T05:07:08.881Z,62.46
2023-04-04T05:08:08.865Z,62.02
2023-04-04T05:09:08.861Z,62.23
2023-04-04T05:10:13.853Z,61.83
2023-04-04T05:11:08.817Z,62.02
2023-04-04T05:12:08.808Z,61.60
2023-04-04T05:13:08.807Z,61.63
2023-04-04T05:14:08.797Z,62.23
2023-04-04T05:15:08.791Z,62.23
2023-04-04T05:16:08.791Z,62.12
2023-04-04T05:17:08.754Z,62.05
2023-04-04T05:18:08.771Z,61.81
2023-04-04T05:19:08.739Z,61.60
2023-04-04T05:20:08.729Z,61.60
2023-04-04T05:21:13.771Z,61.91
2023-04-04T05:22:08.712Z,62.02
2023-04-04T05:23:08.690Z,61.81
2023-04-04T05:24:08.687Z,62.23
2023-04-04T05:25:08.670Z,61.91
2023-04-04T05:26:08.673Z,61.40
2023-04-04T05:27:08.654Z,60.97
2023-04-04T05:28:08.635Z,61.29
2023-04-04T05:29:08.630Z,61.29
2023-04-04T05:30:08.615Z,61.18
2023-04-04T05:31:08.599Z,61.08
2023-04-04T05:32:13.695Z,60.85
2023-04-04T05:33:08.642Z,61.08
2023-04-04T05:34:08.609Z,60.87
2023-04-04T05:35:08.591Z,60.77
2023-04-04T05:36:08.573Z,61.16
2023-04-04T05:37:08.557Z,60.66
2023-04-04T05:38:08.535Z,60.85
2023-04-04T05:39:08.531Z,61.08
2023-04-04T05:40:08.526Z,61.29
2023-04-04T05:41:08.494Z,60.66
2023-04-04T05:42:08.488Z,61.05
2023-04-04T05:43:13.491Z,60.85
2023-04-04T05:44:08.466Z,60.74
2023-04-04T05:45:08.464Z,60.42
2023-04-04T05:46:08.473Z,60.63
2023-04-04T05:47:08.427Z,60.32
2023-04-04T05:48:08.411Z,60.22
2023-04-04T05:49:08.407Z,60.40
2023-04-04T05:50:08.389Z,59.54
2023-04-04T05:51:09.818Z,59.44
2023-04-04T05:52:08.368Z,59.30
2023-04-04T05:53:08.374Z,57.75
2023-04-04T05:54:13.385Z,57.75
2023-04-04T05:55:08.330Z,58.16
2023-04-04T05:56:08.322Z,57.85
2023-04-04T05:57:08.332Z,58.65
2023-04-04T05:58:08.299Z,58.16
2023-04-04T05:59:08.319Z,58.37
2023-04-04T06:00:08.278Z,58.78
2023-04-04T06:01:08.263Z,58.06
2023-04-04T06:02:08.320Z,58.06
2023-04-04T06:03:08.372Z,58.26
2023-04-04T06:04:08.242Z,58.06
2023-04-04T06:05:13.328Z,58.26
2023-04-04T06:06:08.278Z,58.37
2023-04-04T06:07:08.208Z,57.22
2023-04-04T06:08:08.189Z,56.91
2023-04-04T06:09:08.904Z,57.22
2023-04-04T06:10:08.188Z,57.01
2023-04-04T06:11:08.152Z,58.16
2023-04-04T06:12:08.143Z,57.95
2023-04-04T06:13:08.131Z,57.46
2023-04-04T06:14:08.134Z,57.95
2023-04-04T06:15:08.130Z,57.95
2023-04-04T06:16:13.172Z,56.81
2023-04-04T06:17:08.088Z,56.88
2023-04-04T06:18:08.113Z,57.20
2023-04-04T06:19:08.084Z,57.22
2023-04-04T06:20:08.055Z,57.09
2023-04-04T06:21:08.074Z,57.22
2023-04-04T06:22:08.032Z,57.30
2023-04-04T06:23:08.023Z,57.12
2023-04-04T06:24:08.023Z,56.99
2023-04-04T06:25:08.023Z,57.09
2023-04-04T06:26:07.995Z,56.78
2023-04-04T06:27:13.026Z,55.95
2023-04-04T06:28:07.978Z,56.68
2023-04-04T06:29:07.966Z,56.78
2023-04-04T06:30:10.282Z,56.02
2023-04-04T06:31:07.954Z,56.05
2023-04-04T06:32:07.928Z,55.63
2023-04-04T06:33:07.952Z,55.92
2023-04-04T06:34:07.920Z,56.34
2023-04-04T06:35:07.899Z,55.19
2023-04-04T06:36:07.885Z,55.40
2023-04-04T06:37:07.887Z,55.32
2023-04-04T06:38:12.878Z,54.99
2023-04-04T06:39:07.882Z,54.16
2023-04-04T06:40:07.834Z,54.08
2023-04-04T06:41:07.839Z,54.99
2023-04-04T06:42:07.825Z,55.17
2023-04-04T06:43:07.796Z,55.27
2023-04-04T06:44:07.799Z,54.86
2023-04-04T06:45:07.803Z,54.96
2023-04-04T06:46:07.777Z,54.65
2023-04-04T06:47:07.773Z,54.44
2023-04-04T06:48:07.782Z,54.13
2023-04-04T06:49:12.782Z,54.34
2023-04-04T06:50:07.727Z,54.24
2023-04-04T06:51:07.758Z,53.06
2023-04-04T06:52:07.701Z,53.30
2023-04-04T06:53:07.692Z,54.03
2023-04-04T06:54:07.682Z,54.13
2023-04-04T06:55:07.670Z,54.34
2023-04-04T06:56:07.658Z,54.00
2023-04-04T06:57:07.707Z,53.06
2023-04-04T06:58:07.635Z,53.04
2023-04-04T06:59:07.665Z,53.56
2023-04-04T07:00:12.642Z,52.94
2023-04-04T07:01:07.613Z,52.31
2023-04-04T07:02:07.648Z,52.69
2023-04-04T07:03:07.637Z,52.01
2023-04-04T07:04:07.570Z,50.93
2023-04-04T07:05:07.555Z,50.47
2023-04-04T07:06:07.575Z,48.07
2023-04-04T07:07:07.547Z,47.03
2023-04-04T07:08:07.536Z,47.66
2023-04-04T07:09:12.784Z,48.09
2023-04-04T07:10:07.520Z,47.60
2023-04-04T07:11:12.513Z,47.57
2023-04-04T07:12:07.478Z,46.83
2023-04-04T07:13:07.496Z,46.81
2023-04-04T07:14:07.463Z,46.39
2023-04-04T07:15:07.485Z,46.17
2023-04-04T07:16:07.450Z,45.54
2023-04-04T07:17:17.196Z,45.32
2023-04-04T07:18:07.434Z,44.89
2023-04-04T07:19:07.402Z,45.50
2023-04-04T07:20:07.399Z,45.09
2023-04-04T07:21:07.400Z,44.89
2023-04-04T07:22:12.418Z,45.63
2023-04-04T07:23:07.378Z,45.56
2023-04-04T07:24:07.378Z,46.75
2023-04-04T07:25:07.370Z,47.20
2023-04-04T07:26:07.321Z,48.24
2023-04-04T07:27:07.330Z,47.92
2023-04-04T07:28:13.030Z,48.34
2023-04-04T07:29:07.348Z,48.55
2023-04-04T07:30:07.297Z,48.11
2023-04-04T07:31:07.262Z,48.11
2023-04-04T07:32:07.375Z,47.47
2023-04-04T07:33:12.297Z,46.75
2023-04-04T07:34:07.233Z,45.79
2023-04-04T07:35:07.213Z,45.67
2023-04-04T07:36:07.250Z,44.76
2023-04-04T07:37:07.201Z,45.13
2023-04-04T07:38:07.177Z,44.39
2023-04-04T07:39:07.199Z,44.16
2023-04-04T07:40:07.154Z,42.78
2023-04-04T07:41:07.144Z,42.27
2023-04-04T07:42:07.132Z,42.24
2023-04-04T07:43:07.129Z,41.63
2023-04-04T07:44:12.162Z,41.66
2023-04-04T07:45:07.152Z,42.30
2023-04-04T07:46:07.156Z,43.35
2023-04-04T07:47:10.218Z,44.31
2023-04-04T07:48:07.075Z,42.76
2023-04-04T07:49:07.075Z,42.86
2023-04-04T07:50:07.043Z,42.74
2023-04-04T07:51:07.072Z,43.25
2023-04-04T07:52:07.043Z,42.41
2023-04-04T07:53:07.016Z,42.49
2023-04-04T07:54:07.049Z,41.94
2023-04-04T07:55:12.004Z,41.08
2023-04-04T07:56:06.971Z,40.97
2023-04-04T07:57:06.979Z,39.82
2023-04-04T07:58:06.951Z,39.43
2023-04-04T07:59:06.974Z,39.47
2023-04-04T08:00:06.943Z,39.96
2023-04-04T08:01:06.915Z,40.97
2023-04-04T08:02:06.901Z,41.53
2023-04-04T08:03:06.943Z,39.03
2023-04-04T08:04:06.976Z,37.96
2023-04-04T08:05:06.873Z,36.46
2023-04-04T08:06:11.879Z,36.92
2023-04-04T08:07:06.851Z,38.65
2023-04-04T08:08:06.836Z,38.40
2023-04-04T08:09:06.856Z,39.34
2023-04-04T08:10:06.809Z,39.59
2023-04-04T08:11:06.798Z,40.12
2023-04-04T08:12:06.786Z,40.12
2023-04-04T08:13:06.778Z,40.45
2023-04-04T08:14:06.790Z,40.86
2023-04-04T08:15:06.780Z,40.00
2023-04-04T08:16:06.784Z,39.61
2023-04-04T08:17:11.755Z,40.45
2023-04-04T08:18:06.740Z,40.53
2023-04-04T08:19:06.720Z,40.20
2023-04-04T08:20:06.710Z,40.08
2023-04-04T08:21:06.721Z,39.94
2023-04-04T08:22:06.673Z,39.63
2023-04-04T08:23:06.660Z,38.73
2023-04-04T08:24:06.679Z,39.69
2023-04-04T08:25:06.641Z,40.06
2023-04-04T08:26:06.628Z,39.63
2023-04-04T08:27:06.629Z,39.39
2023-04-04T08:28:11.642Z,38.22
2023-04-04T08:29:06.626Z,37.28
2023-04-04T08:30:06.583Z,36.12
2023-04-04T08:31:06.596Z,36.00
2023-04-04T08:32:06.576Z,35.47
2023-04-04T08:33:06.666Z,35.38
2023-04-04T08:34:06.536Z,36.03
2023-04-04T08:35:06.538Z,36.03
2023-04-04T08:36:06.535Z,35.91
2023-04-04T08:37:06.501Z,36.08
2023-04-04T08:38:06.490Z,35.30
2023-04-04T08:39:11.540Z,36.02
2023-04-04T08:40:06.479Z,36.21
2023-04-04T08:41:06.454Z,34.38
2023-04-04T08:42:06.455Z,34.80
2023-04-04T08:43:06.437Z,35.64
2023-04-04T08:44:06.421Z,35.96
2023-04-04T08:45:06.441Z,36.29
2023-04-04T08:46:06.412Z,36.49
2023-04-04T08:47:06.550Z,37.18
2023-04-04T08:48:06.482Z,35.94
2023-04-04T08:49:06.434Z,36.29
2023-04-04T08:50:11.392Z,37.02
2023-04-04T08:51:06.364Z,37.23
2023-04-04T08:52:06.458Z,37.55
2023-04-04T08:53:06.327Z,38.09
2023-04-04T08:54:06.313Z,38.29
2023-04-04T08:55:06.331Z,37.37
2023-04-04T08:56:06.292Z,38.40
2023-04-04T08:57:06.297Z,38.38
2023-04-04T08:58:06.275Z,38.59
2023-04-04T08:59:06.380Z,38.38
2023-04-04T09:00:06.432Z,37.57
2023-04-04T09:01:11.311Z,38.60
2023-04-04T09:02:06.265Z,37.85
2023-04-04T09:03:06.350Z,37.42
2023-04-04T09:04:06.229Z,37.59
2023-04-04T09:05:07.341Z,36.32
2023-04-04T09:06:06.209Z,35.89
2023-04-04T09:07:06.170Z,35.21
2023-04-04T09:08:06.157Z,35.94
2023-04-04T09:09:06.161Z,35.52
2023-04-04T09:10:06.163Z,35.81
2023-04-04T09:11:06.140Z,34.48
2023-04-04T09:12:11.135Z,34.49
2023-04-04T09:13:15.502Z,34.70
2023-04-04T09:14:06.095Z,34.39
2023-04-04T09:15:06.131Z,35.43
2023-04-04T09:16:06.181Z,36.24
2023-04-04T09:17:06.054Z,35.52
2023-04-04T09:18:06.057Z,34.70
2023-04-04T09:19:06.037Z,34.66
2023-04-04T09:20:06.111Z,33.84
2023-04-04T09:21:06.030Z,34.75
2023-04-04T09:22:05.998Z,34.20
2023-04-04T09:23:11.009Z,34.39
2023-04-04T09:24:05.982Z,34.07
2023-04-04T09:25:05.972Z,33.34
2023-04-04T09:26:05.949Z,32.64
2023-04-04T09:27:05.955Z,32.76
2023-04-04T09:28:06.159Z,34.09
2023-04-04T09:29:05.928Z,33.80
2023-04-04T09:30:05.984Z,33.58
2023-04-04T09:31:06.132Z,32.64
2023-04-04T09:32:05.953Z,32.81
2023-04-04T09:33:05.975Z,32.39
2023-04-04T09:34:10.913Z,31.77
2023-04-04T09:35:05.860Z,31.98
2023-04-04T09:36:05.908Z,31.59
2023-04-04T09:37:05.838Z,31.63
2023-04-04T09:38:05.821Z,32.68
2023-04-04T09:39:05.821Z,33.59
2023-04-04T09:40:05.905Z,33.06
2023-04-04T09:41:05.902Z,32.64
2023-04-04T09:42:05.779Z,32.20
2023-04-04T09:43:05.756Z,31.16
2023-04-04T09:44:05.752Z,31.38
2023-04-04T09:45:13.221Z,31.60
2023-04-04T09:46:05.792Z,31.91
2023-04-04T09:47:05.745Z,31.88
2023-04-04T09:48:05.761Z,31.35
2023-04-04T09:49:05.697Z,31.66
2023-04-04T09:50:05.724Z,31.13
2023-04-04T09:51:05.727Z,30.82
2023-04-04T09:52:05.696Z,30.61
2023-04-04T09:53:05.649Z,29.88
2023-04-04T09:54:06.504Z,29.99
2023-04-04T09:55:05.640Z,29.69
2023-04-04T09:56:10.648Z,30.93
2023-04-04T09:57:05.609Z,30.62
2023-04-04T09:58:05.592Z,30.45
2023-04-04T09:59:05.582Z,31.56
2023-04-04T10:00:05.601Z,31.46
2023-04-04T10:01:05.574Z,30.76
2023-04-04T10:02:05.551Z,31.38
2023-04-04T10:03:05.586Z,31.70
2023-04-04T10:04:05.615Z,31.60
2023-04-04T10:05:06.557Z,32.11
2023-04-04T10:06:07.249Z,32.31
2023-04-04T10:07:10.528Z,31.72
2023-04-04T10:08:05.483Z,33.61
2023-04-04T10:09:05.475Z,33.71
2023-04-04T10:10:05.468Z,33.70
2023-04-04T10:12:05.447Z,33.80
2023-04-04T10:13:05.526Z,34.70
2023-04-04T10:14:05.460Z,33.46
2023-04-04T10:15:05.414Z,33.46
2023-04-04T10:16:05.454Z,33.85
2023-04-04T10:17:05.374Z,32.92
2023-04-04T10:18:10.389Z,31.96
2023-04-04T10:19:05.349Z,31.44
2023-04-04T10:20:05.343Z,31.34
2023-04-04T10:21:15.347Z,31.44
2023-04-04T10:22:05.316Z,30.87
2023-04-04T10:23:05.352Z,31.84
2023-04-04T10:24:05.293Z,31.85
2023-04-04T10:25:05.290Z,32.98
2023-04-04T10:26:05.299Z,31.94
2023-04-04T10:27:05.279Z,32.03
2023-04-04T10:28:05.281Z,31.20
2023-04-04T10:29:10.273Z,31.38
2023-04-04T10:30:05.223Z,31.59
2023-04-04T10:31:07.127Z,31.59
2023-04-04T10:32:05.252Z,31.08
2023-04-04T10:33:05.251Z,32.40
2023-04-04T10:34:05.246Z,32.23
2023-04-04T10:35:05.177Z,32.13
2023-04-04T10:36:05.184Z,32.65
2023-04-04T10:37:05.156Z,33.47
2023-04-04T10:38:05.130Z,33.90
2023-04-04T10:39:05.211Z,32.65
2023-04-04T10:40:10.196Z,33.27
2023-04-04T10:41:05.123Z,33.56
2023-04-04T10:42:05.090Z,32.39
2023-04-04T10:43:05.090Z,34.59
2023-04-04T10:44:05.077Z,34.48
2023-04-04T10:45:19.440Z,34.25
2023-04-04T10:46:05.114Z,34.89
2023-04-04T10:47:05.028Z,34.27
2023-04-04T10:48:05.039Z,35.47
2023-04-04T10:49:05.016Z,33.31
2023-04-04T10:50:05.012Z,33.62
2023-04-04T10:51:10.028Z,33.71
2023-04-04T10:52:05.031Z,33.51
2023-04-04T10:53:04.970Z,33.81
2023-04-04T10:54:04.966Z,33.59
2023-04-04T10:55:04.972Z,32.98
2023-04-04T10:56:04.964Z,32.98
2023-04-04T10:57:04.915Z,33.58
2023-04-04T10:58:04.913Z,33.56
2023-04-04T10:59:04.910Z,34.28
2023-04-04T11:00:04.880Z,32.84
2023-04-04T11:01:04.968Z,32.81
2023-04-04T11:02:09.880Z,32.50
2023-04-04T11:03:04.872Z,31.34
2023-04-04T11:04:04.873Z,31.13
2023-04-04T11:05:04.822Z,32.10
2023-04-04T11:06:04.819Z,32.29
2023-04-04T11:07:04.802Z,31.56
2023-04-04T11:08:08.711Z,32.56
2023-04-04T11:09:04.781Z,31.54
2023-04-04T11:10:04.776Z,31.21
2023-04-04T11:11:09.751Z,30.87
2023-04-04T11:12:05.744Z,30.55
2023-04-04T11:13:13.250Z,30.36
2023-04-04T11:14:04.729Z,30.55
2023-04-04T11:15:04.723Z,29.84
2023-04-04T11:16:04.785Z,29.72
2023-04-04T11:17:04.687Z,29.43
2023-04-04T11:18:17.357Z,30.13
2023-04-04T11:19:04.672Z,29.30
2023-04-04T11:20:04.663Z,29.10
2023-04-04T11:21:04.659Z,29.83
2023-04-04T11:22:04.693Z,29.42
2023-04-04T11:23:04.629Z,28.60
2023-04-04T11:24:09.633Z,29.50
2023-04-04T11:25:04.596Z,29.50
2023-04-04T11:26:04.583Z,29.84
2023-04-04T11:27:04.604Z,29.24
2023-04-04T11:28:04.620Z,29.75
2023-04-04T11:29:04.630Z,29.02
2023-04-04T11:30:06.299Z,29.32
2023-04-04T11:31:04.532Z,28.80
2023-04-04T11:32:04.562Z,28.69
2023-04-04T11:33:07.890Z,28.39
2023-04-04T11:34:04.496Z,28.40
2023-04-04T11:35:09.529Z,29.62
2023-04-04T11:36:06.134Z,28.17
2023-04-04T11:37:04.481Z,29.19
2023-04-04T11:38:04.558Z,27.95
2023-04-04T11:39:04.446Z,28.17
2023-04-04T11:40:04.436Z,28.38
2023-04-04T11:41:04.431Z,28.47
2023-04-04T11:42:04.430Z,28.07
2023-04-04T11:43:04.423Z,28.89
2023-04-04T11:44:04.400Z,28.70
2023-04-04T11:45:04.426Z,30.03
2023-04-04T11:46:09.425Z,28.59
2023-04-04T11:47:04.391Z,29.10
2023-04-04T11:48:04.376Z,29.72
2023-04-04T11:49:04.336Z,29.94
2023-04-04T11:50:04.324Z,29.44
2023-04-04T11:51:04.304Z,29.97
2023-04-04T11:52:04.300Z,30.49
2023-04-04T11:53:04.293Z,30.73
2023-04-04T11:54:04.268Z,31.54
2023-04-04T11:55:04.264Z,31.24
2023-04-04T11:56:04.254Z,32.17
2023-04-04T11:57:09.269Z,31.37
2023-04-04T11:58:04.225Z,32.10
2023-04-04T11:59:10.933Z,33.05
2023-04-04T12:00:05.199Z,33.44
2023-04-04T12:01:04.188Z,34.03
2023-04-04T12:02:04.223Z,31.65
2023-04-04T12:03:04.285Z,31.84
2023-04-04T12:04:04.167Z,31.43
2023-04-04T12:05:04.211Z,31.41
2023-04-04T12:06:04.140Z,29.94
2023-04-04T12:07:04.138Z,29.75
2023-04-04T12:08:09.150Z,30.25
2023-04-04T12:09:04.099Z,30.04
2023-04-04T12:10:04.121Z,30.22
2023-04-04T12:11:04.075Z,29.71
2023-04-04T12:12:04.089Z,30.10
2023-04-04T12:13:04.052Z,28.34
2023-04-04T12:14:04.046Z,28.22
2023-04-04T12:15:16.644Z,26.99
2023-04-04T12:16:05.065Z,26.46
2023-04-04T12:17:04.022Z,26.25
2023-04-04T12:18:04.058Z,26.05
2023-04-04T12:19:09.007Z,26.05
2023-04-04T12:20:04.003Z,26.24
2023-04-04T12:21:03.963Z,26.37
2023-04-04T12:22:05.319Z,26.89
2023-04-04T12:23:03.950Z,27.06
2023-04-04T12:24:03.936Z,26.65
2023-04-04T12:25:03.924Z,26.65
2023-04-04T12:26:03.921Z,26.04
2023-04-04T12:27:03.912Z,25.81
2023-04-04T12:28:03.885Z,25.68
2023-04-04T12:29:03.872Z,24.65
2023-04-04T12:30:08.946Z,24.05
2023-04-04T12:31:03.923Z,23.97
2023-04-04T12:32:03.848Z,25.09
2023-04-04T12:33:03.903Z,24.89
2023-04-04T12:34:03.819Z,25.95
2023-04-04T12:35:03.807Z,26.85
2023-04-04T12:36:03.877Z,25.61
2023-04-04T12:37:03.854Z,25.48
2023-04-04T12:38:03.803Z,24.36
2023-04-04T12:39:03.761Z,24.66
2023-04-04T12:40:03.766Z,23.85
2023-04-04T12:41:08.854Z,23.85
2023-04-04T12:42:03.785Z,24.46
2023-04-04T12:43:03.713Z,25.19
2023-04-04T12:44:03.698Z,25.40
2023-04-04T12:45:03.692Z,25.49
2023-04-04T12:46:03.826Z,25.78
2023-04-04T12:47:03.740Z,25.57
2023-04-04T12:48:03.687Z,25.15
2023-04-04T12:49:03.653Z,24.12
2023-04-04T12:50:03.655Z,24.52
2023-04-04T12:51:03.631Z,24.83
2023-04-04T12:52:08.653Z,24.93
2023-04-04T12:53:23.894Z,25.35